Time;durP1;ratioP1;P1;durP2;ratioP2;P2;SDS_P1;SDS_P2;PMS_P1;PMS_P2;Temp;Humidity;BMP_temperature;BMP_pressure;BME280_temperature;BME280_humidity;BME280_pressure;Samples;Min_cycle;Max_cycle;Signal;HPM_P1;HPM_P2
2021/11/10 00:00:41;;;;;;;10.70;7.82;;;3.90;76.10;;;1.91;79.74;96800.28;4973414;28;20030;-66
2021/11/10 00:03:07;;;;;;;11.95;6.90;;;3.80;76.00;;;1.86;79.17;96802.44;4991106;28;20069;-67
2021/11/10 00:05:33;;;;;;;12.95;7.72;;;3.70;76.00;;;1.80;79.78;96804.53;4989347;28;20030;-66
2021/11/10 00:07:59;;;;;;;15.43;9.07;;;3.60;76.00;;;1.70;79.33;96806.19;4990030;28;20411;-67
2021/11/10 00:10:25;;;;;;;17.05;9.75;;;3.60;75.70;;;1.64;79.05;96813.63;4989343;28;20038;-66
2021/11/10 00:12:51;;;;;;;16.20;9.63;;;3.40;76.00;;;1.60;79.58;96818.22;4973637;28;20089;-67
2021/11/10 00:15:16;;;;;;;15.88;9.48;;;3.40;76.00;;;1.53;79.70;96817.00;4991285;28;20033;-66
2021/11/10 00:17:42;;;;;;;15.45;9.50;;;3.40;76.20;;;1.50;79.99;96809.47;4972304;28;20070;-67
2021/11/10 00:20:10;;;;;;;12.18;8.13;;;3.40;76.30;;;1.43;80.09;96801.31;4991025;28;20037;-67
2021/11/10 00:22:36;;;;;;;13.40;8.90;;;3.40;76.20;;;1.41;79.85;96807.56;4957496;28;20042;-67
2021/11/10 00:25:04;;;;;;;11.23;8.25;;;3.40;76.50;;;1.39;80.34;96799.09;4989295;28;20038;-67
2021/11/10 00:27:30;;;;;;;13.45;7.55;;;3.40;76.40;;;1.38;80.26;96802.63;4972575;28;20108;-66
2021/11/10 00:29:56;;;;;;;13.40;8.23;;;3.40;76.50;;;1.41;79.97;96797.19;4973193;28;20042;-66
2021/11/10 00:32:22;;;;;;;15.02;8.00;;;3.40;77.00;;;1.40;80.83;96795.53;4989376;28;20073;-67
2021/11/10 00:34:48;;;;;;;13.05;8.85;;;3.40;77.30;;;1.42;80.91;96801.44;4975742;28;20050;-66
2021/11/10 00:37:13;;;;;;;12.30;7.38;;;3.40;77.40;;;1.44;80.59;96809.94;4990524;28;20462;-67
2021/11/10 00:39:39;;;;;;;11.65;8.02;;;3.50;77.30;;;1.45;80.69;96808.97;4956548;28;20509;-67
2021/11/10 00:42:05;;;;;;;12.10;8.10;;;3.50;77.80;;;1.43;81.06;96805.69;4989151;28;20683;-67
2021/11/10 00:44:31;;;;;;;11.15;7.90;;;3.50;78.10;;;1.47;81.61;96802.75;4973633;28;20504;-67
2021/11/10 00:46:57;;;;;;;13.65;7.70;;;3.50;78.20;;;1.46;81.69;96797.66;4988979;28;20038;-67
2021/11/10 00:49:23;;;;;;;11.52;7.65;;;3.40;77.80;;;1.45;81.10;96803.81;4971380;28;20046;-66
2021/11/10 00:51:48;;;;;;;9.55;7.15;;;3.50;78.00;;;1.46;81.58;96797.66;4988370;28;20082;-66
2021/11/10 00:54:14;;;;;;;12.82;8.00;;;3.40;77.80;;;1.45;80.83;96798.63;4989150;28;20030;-67
2021/11/10 00:56:40;;;;;;;14.73;7.90;;;3.40;77.60;;;1.42;81.07;96799.69;4990483;28;20065;-67
2021/11/10 00:59:06;;;;;;;12.02;7.57;;;3.40;77.30;;;1.39;80.86;96799.09;4972892;28;20125;-66
2021/11/10 01:01:32;;;;;;;16.23;8.15;;;3.40;77.20;;;1.37;81.28;96800.97;4988966;28;20065;-66
2021/11/10 01:03:58;;;;;;;13.95;7.80;;;3.40;77.30;;;1.38;81.34;96805.22;4971927;28;20503;-66
2021/11/10 01:06:24;;;;;;;13.35;7.63;;;3.40;77.30;;;1.37;81.15;96800.97;4972348;28;20053;-66
2021/11/10 01:08:52;;;;;;;15.60;8.65;;;3.30;77.60;;;1.37;81.78;96795.78;4972387;28;20494;-67
2021/11/10 01:11:18;;;;;;;13.85;8.50;;;3.30;77.30;;;1.33;81.55;96792.56;4971237;28;20039;-67
2021/11/10 01:13:44;;;;;;;13.15;7.88;;;3.30;77.40;;;1.34;81.39;96793.41;4973233;28;20037;-67
2021/11/10 01:16:10;;;;;;;13.05;8.48;;;3.20;77.60;;;1.31;80.91;96789.28;4990097;28;20062;-68
2021/11/10 01:18:35;;;;;;;13.35;7.80;;;3.20;77.70;;;1.27;81.15;96779.25;4990471;28;20039;-67
2021/11/10 01:21:01;;;;;;;12.57;7.78;;;3.20;77.40;;;1.28;81.02;96783.50;4988104;28;20050;-67
2021/11/10 01:23:28;;;;;;;12.48;8.50;;;3.20;77.30;;;1.23;81.05;96768.28;4988436;28;20088;-67
2021/11/10 01:25:53;;;;;;;11.60;7.90;;;3.10;77.40;;;1.20;80.66;96769.34;4998579;28;20030;-68
2021/11/10 01:28:19;;;;;;;11.32;8.05;;;3.10;77.30;;;1.13;81.31;96763.00;5005408;28;20034;-67
2021/11/10 01:30:45;;;;;;;13.73;7.60;;;3.10;77.20;;;1.14;81.92;96777.59;4980317;28;20483;-67
2021/11/10 01:33:11;;;;;;;17.05;8.40;;;3.10;77.40;;;1.10;81.55;96773.56;4989909;28;20121;-67
2021/11/10 01:35:37;;;;;;;11.88;7.82;;;3.10;77.30;;;1.09;80.97;96771.06;4987994;28;20130;-67
2021/11/10 01:38:03;;;;;;;15.18;9.45;;;3.10;77.30;;;1.10;81.65;96768.38;4988999;28;20050;-68
2021/11/10 01:40:28;;;;;;;10.85;7.60;;;3.10;78.20;;;1.08;81.31;96765.06;4996559;23;20038;-65
2021/11/10 01:42:58;;;;;;;13.52;8.43;;;3.00;77.80;;;1.06;81.18;96772.13;4997317;28;20132;-65
2021/11/10 01:45:23;;;;;;;11.57;7.97;;;3.00;77.50;;;1.02;81.78;96772.47;4973905;28;20120;-66
2021/11/10 01:47:49;;;;;;;10.65;7.15;;;2.90;77.20;;;1.00;81.29;96777.78;5005457;28;20065;-65
2021/11/10 01:50:17;;;;;;;13.70;8.05;;;2.90;77.40;;;0.96;81.12;96772.94;4976777;28;20057;-65
2021/11/10 01:52:43;;;;;;;11.05;7.97;;;2.90;77.10;;;0.92;80.85;96769.75;4959614;28;20519;-65
2021/11/10 01:55:09;;;;;;;11.18;8.23;;;2.90;77.40;;;0.90;81.31;96771.59;4982013;28;20039;-65
2021/11/10 01:57:35;;;;;;;12.65;8.52;;;2.80;77.20;;;0.84;80.98;96772.06;4980754;28;20039;-65
2021/11/10 02:00:07;;;;;;;14.13;8.80;;;2.80;77.20;;;0.83;82.15;96778.19;4997650;28;20100;-65
2021/11/10 02:02:34;;;;;;;11.95;8.27;;;2.80;77.40;;;0.82;82.10;96779.94;4992989;28;20533;-66
2021/11/10 02:05:00;;;;;;;14.77;8.23;;;2.80;77.40;;;0.83;81.44;96775.59;4989921;28;20126;-65
2021/11/10 02:07:26;;;;;;;15.77;9.25;;;2.80;77.30;;;0.83;81.58;96785.97;4959746;28;20122;-65
2021/11/10 02:09:52;;;;;;;14.43;8.07;;;2.80;77.40;;;0.81;81.74;96769.69;4980811;28;20114;-65
2021/11/10 02:12:18;;;;;;;12.77;8.73;;;2.80;77.00;;;0.81;81.33;96770.53;4994146;28;20118;-65
2021/11/10 02:14:44;;;;;;;12.93;8.10;;;2.80;77.20;;;0.80;81.42;96765.47;4984576;28;20122;-66
2021/11/10 02:17:16;;;;;;;13.63;8.60;;;2.80;77.20;;;0.77;82.37;96761.34;4977719;28;20514;-65
2021/11/10 02:19:42;;;;;;;14.63;8.27;;;2.80;77.10;;;0.78;81.90;96762.16;4985032;28;20037;-65
2021/11/10 02:22:08;;;;;;;13.02;8.50;;;2.80;77.30;;;0.78;82.03;96751.81;4999815;28;20054;-66
2021/11/10 02:24:33;;;;;;;14.52;8.45;;;2.80;77.70;;;0.77;82.40;96760.50;5008792;28;20069;-65
2021/11/10 02:27:00;;;;;;;11.55;7.93;;;2.80;77.60;;;0.75;81.85;96752.03;4992150;28;20034;-65
2021/11/10 02:29:30;;;;;;;12.45;7.95;;;2.80;77.50;;;0.73;82.57;96751.31;4980655;28;20041;-65
2021/11/10 02:31:56;;;;;;;14.75;8.65;;;2.70;77.50;;;0.72;82.06;96754.84;4979000;28;20034;-65
2021/11/10 02:34:22;;;;;;;16.05;8.63;;;2.80;77.80;;;0.73;82.13;96759.09;4993621;28;20042;-66
2021/11/10 02:36:47;;;;;;;14.13;9.23;;;2.80;78.20;;;0.74;82.31;96761.56;4966410;28;20061;-66
2021/11/10 02:39:20;;;;;;;14.63;8.65;;;2.70;78.30;;;0.75;83.03;96757.22;4975240;28;20244;-65
2021/11/10 02:41:47;;;;;;;13.57;8.80;;;2.70;78.30;;;0.75;82.46;96757.22;4964107;28;20038;-65
2021/11/10 02:44:20;;;;;;;14.68;8.82;;;2.70;78.10;;;0.73;83.37;96748.72;4998938;28;20580;-65
2021/11/10 02:46:47;;;;;;;12.77;8.18;;;2.60;78.20;;;0.70;82.12;96749.78;5002230;28;20034;-66
2021/11/10 02:49:12;;;;;;;13.25;8.65;;;2.60;78.20;;;0.68;82.19;96750.81;4976578;28;20030;-65
2021/11/10 02:52:07;;;;;;;13.05;8.82;;;2.60;78.20;;;0.67;84.26;96755.16;4960528;28;20058;-65
2021/11/10 02:54:35;;;;;;;11.70;8.05;;;2.70;78.30;;;0.67;82.45;96752.56;5008684;28;20816;-65
2021/11/10 02:57:03;;;;;;;14.70;8.82;;;2.70;78.50;;;0.67;82.80;96757.75;4991704;28;20037;-65
2021/11/10 02:59:29;;;;;;;15.85;8.95;;;2.70;78.50;;;0.68;82.56;96756.84;4974252;28;20035;-65
2021/11/10 03:01:55;;;;;;;16.27;8.55;;;2.70;78.60;;;0.67;82.92;96749.16;4975296;28;20069;-66
2021/11/10 03:04:22;;;;;;;12.20;7.82;;;2.70;78.60;;;0.68;83.11;96735.28;5006747;28;20046;-66
2021/11/10 03:06:48;;;;;;;11.82;8.50;;;2.60;78.70;;;0.68;83.30;96733.53;4975611;28;20034;-66
2021/11/10 03:09:22;;;;;;;17.48;9.30;;;2.70;79.00;;;0.68;84.26;96720.59;4970470;28;20529;-65
2021/11/10 03:11:48;;;;;;;13.25;9.20;;;2.70;79.10;;;0.69;83.28;96729.19;4979006;28;20038;-66
2021/11/10 03:14:14;;;;;;;14.80;9.50;;;2.70;79.10;;;0.69;84.28;96732.59;4990761;28;20461;-66
2021/11/10 03:16:40;;;;;;;15.32;9.52;;;2.70;79.50;;;0.68;84.15;96719.75;4975203;28;20042;-65
2021/11/10 03:19:06;;;;;;;13.07;9.35;;;2.70;79.70;;;0.66;84.08;96722.44;4994021;28;20057;-66
2021/11/10 03:21:31;;;;;;;14.32;8.98;;;2.70;79.70;;;0.66;83.85;96717.28;4974191;28;20520;-64
2021/11/10 03:23:57;;;;;;;15.48;10.20;;;2.70;79.80;;;0.66;84.36;96721.63;4990726;28;20539;-65
2021/11/10 03:26:23;;;;;;;66.53;41.03;;;2.70;79.70;;;0.68;84.54;96724.91;4982534;28;20155;-65
2021/11/10 03:28:49;;;;;;;24.65;15.98;;;2.70;79.60;;;0.71;84.92;96729.91;4977378;28;20084;-65
2021/11/10 03:31:16;;;;;;;15.98;10.98;;;2.70;79.60;;;0.71;84.01;96724.72;4989357;28;20052;-66
2021/11/10 03:33:41;;;;;;;15.75;9.40;;;2.70;79.60;;;0.73;83.91;96728.84;4982999;28;20154;-66
2021/11/10 03:36:07;;;;;;;15.63;9.93;;;2.70;79.40;;;0.73;83.74;96728.03;4972988;28;20034;-66
2021/11/10 03:38:33;;;;;;;14.18;9.88;;;2.70;79.60;;;0.72;83.72;96729.78;4991018;28;20030;-66
2021/11/10 03:40:59;;;;;;;15.18;10.18;;;2.60;79.90;;;0.68;83.94;96730.97;5002088;28;20042;-65
2021/11/10 03:43:24;;;;;;;15.30;10.07;;;2.60;79.80;;;0.68;83.81;96735.28;4972376;28;20901;-66
2021/11/10 03:45:51;;;;;;;16.08;9.82;;;2.60;79.60;;;0.65;84.55;96727.75;4982992;28;20379;-65
2021/11/10 03:48:17;;;;;;;16.15;10.15;;;2.60;79.60;;;0.63;83.92;96727.03;4991038;28;20031;-68
2021/11/10 03:50:43;;;;;;;17.05;10.18;;;2.60;79.70;;;0.61;84.15;96717.63;4964079;28;20037;-66
2021/11/10 03:53:09;;;;;;;14.38;10.07;;;2.60;79.40;;;0.59;84.34;96716.91;4963124;28;20038;-65
2021/11/10 03:55:36;;;;;;;15.48;10.07;;;2.60;79.50;;;0.58;84.29;96724.78;4989944;28;20042;-67
2021/11/10 03:58:03;;;;;;;14.18;9.80;;;2.50;79.70;;;0.55;84.92;96715.47;4961892;28;20088;-65
2021/11/10 04:00:29;;;;;;;14.57;9.23;;;2.50;79.60;;;0.54;84.24;96718.19;5019460;28;20102;-65
2021/11/10 04:02:54;;;;;;;26.75;16.02;;;2.60;79.50;;;0.52;84.48;96718.28;4973439;28;20510;-65
2021/11/10 04:05:20;;;;;;;17.48;12.90;;;2.60;79.50;;;0.53;84.94;96716.53;5005580;28;20038;-66
2021/11/10 04:07:46;;;;;;;20.98;11.25;;;2.60;79.80;;;0.52;84.25;96715.72;4989735;28;20096;-66
2021/11/10 04:10:12;;;;;;;14.30;10.32;;;2.60;79.70;;;0.49;84.46;96710.75;5021325;28;20049;-66
2021/11/10 04:12:38;;;;;;;15.77;10.02;;;2.60;79.40;;;0.50;84.39;96721.94;4954391;28;20034;-66
2021/11/10 04:15:04;;;;;;;27.17;17.55;;;2.60;79.30;;;0.50;84.66;96712.41;4987233;28;20034;-65
2021/11/10 04:17:30;;;;;;;84.53;55.55;;;2.50;79.20;;;0.52;84.01;96714.88;4994214;28;20074;-66
2021/11/10 04:19:56;;;;;;;21.92;13.48;;;2.60;79.30;;;0.52;84.23;96723.47;4989186;28;20023;-65
2021/11/10 04:22:23;;;;;;;18.35;11.63;;;2.50;79.20;;;0.50;84.75;96717.59;4987607;28;20065;-65
2021/11/10 04:24:50;;;;;;;26.48;18.73;;;2.50;79.30;;;0.50;84.46;96720.19;4977221;28;20400;-65
2021/11/10 04:27:19;;;;;;;35.33;23.58;;;2.60;79.50;;;0.51;84.65;96724.41;4957836;28;20038;-65
2021/11/10 04:29:48;;;;;;;18.85;12.30;;;2.60;79.50;;;0.52;84.89;96728.66;4985323;28;20034;-66
2021/11/10 04:32:14;;;;;;;18.88;10.75;;;2.60;79.50;;;0.50;84.24;96727.94;4970246;28;20524;-65
2021/11/10 04:34:40;;;;;;;15.35;10.82;;;2.50;79.60;;;0.50;84.47;96722.75;5002316;28;20122;-65
2021/11/10 04:37:06;;;;;;;21.60;11.45;;;2.50;79.80;;;0.49;84.32;96715.94;4989248;28;20030;-65
2021/11/10 04:39:32;;;;;;;17.00;10.90;;;2.50;79.70;;;0.49;84.51;96730.63;4988209;28;20038;-66
2021/11/10 04:41:58;;;;;;;16.55;11.63;;;2.50;79.40;;;0.48;84.90;96724.63;4964720;28;20034;-65
2021/11/10 04:44:24;;;;;;;19.55;12.20;;;2.60;79.30;;;0.47;84.50;96722.16;4953981;28;20050;-65
2021/11/10 04:46:51;;;;;;;16.85;11.30;;;2.60;79.10;;;0.45;85.07;96724.84;4953879;28;20062;-65
2021/11/10 04:49:17;;;;;;;16.90;11.32;;;2.60;79.20;;;0.46;85.37;96726.53;4974305;28;20042;-66
2021/11/10 04:51:44;;;;;;;16.35;11.15;;;2.50;79.20;;;0.48;84.77;96721.22;4964768;28;20046;-65
2021/11/10 04:54:12;;;;;;;22.13;10.80;;;2.60;79.20;;;0.48;84.33;96729.00;5003128;28;20035;-65
2021/11/10 04:56:38;;;;;;;18.27;11.05;;;2.60;79.00;;;0.46;84.95;96731.69;4966781;28;20220;-67
2021/11/10 04:59:04;;;;;;;19.33;11.10;;;2.60;78.80;;;0.44;85.10;96736.13;4955574;28;20510;-67
2021/11/10 05:01:32;;;;;;;19.27;11.48;;;2.50;78.80;;;0.43;84.29;96737.06;4972519;28;20065;-67
2021/11/10 05:03:58;;;;;;;18.05;10.73;;;2.60;78.70;;;0.43;84.44;96744.00;4973347;28;20434;-67
2021/11/10 05:06:24;;;;;;;17.10;11.10;;;2.50;78.60;;;0.41;84.75;96749.28;4990425;28;20061;-67
2021/11/10 05:08:50;;;;;;;16.45;11.10;;;2.50;78.60;;;0.39;84.81;96733.06;4956593;28;20057;-67
2021/11/10 05:11:15;;;;;;;17.08;10.88;;;2.50;78.80;;;0.40;84.63;96736.47;4988840;28;20042;-67
2021/11/10 05:13:41;;;;;;;16.75;10.70;;;2.50;78.80;;;0.39;85.08;96740.81;4972502;28;20484;-67
2021/11/10 05:16:07;;;;;;;17.92;10.13;;;2.50;78.70;;;0.39;85.06;96733.06;5005696;28;20034;-67
2021/11/10 05:18:33;;;;;;;13.90;10.15;;;2.50;78.60;;;0.39;85.03;96735.63;5005669;28;20042;-67
2021/11/10 05:20:58;;;;;;;17.75;10.90;;;2.50;78.70;;;0.38;84.72;96734.00;4988719;28;20030;-67
2021/11/10 05:23:24;;;;;;;17.67;10.63;;;2.40;78.60;;;0.39;84.24;96735.63;5021296;28;20078;-67
2021/11/10 05:25:50;;;;;;;15.00;10.13;;;2.40;78.50;;;0.38;84.31;96728.00;4987402;28;20057;-67
2021/11/10 05:28:16;;;;;;;16.52;10.38;;;2.40;78.40;;;0.36;84.22;96737.63;4954144;28;20038;-68
2021/11/10 05:30:43;;;;;;;19.58;11.02;;;2.40;78.40;;;0.33;84.55;96735.25;4973587;28;20458;-67
2021/11/10 05:33:09;;;;;;;14.40;10.40;;;2.30;78.50;;;0.30;84.40;96725.97;4957617;28;20386;-67
2021/11/10 05:35:35;;;;;;;17.67;10.88;;;2.30;78.60;;;0.28;84.24;96733.00;4967610;28;20035;-67
2021/11/10 05:38:01;;;;;;;15.60;10.70;;;2.30;78.70;;;0.25;84.46;96728.06;4955552;28;20084;-67
2021/11/10 05:40:26;;;;;;;17.52;11.57;;;2.40;78.70;;;0.27;84.80;96731.38;4961582;28;20789;-67
2021/11/10 05:42:52;;;;;;;16.75;10.80;;;2.40;78.70;;;0.27;84.64;96731.38;4987663;28;20034;-67
2021/11/10 05:45:18;;;;;;;18.75;10.65;;;2.30;78.70;;;0.26;84.43;96732.31;4979925;28;20065;-67
2021/11/10 05:47:44;;;;;;;17.00;10.48;;;2.30;78.50;;;0.26;84.35;96724.53;4995954;28;20073;-67
2021/11/10 05:50:09;;;;;;;15.73;10.65;;;2.30;78.70;;;0.25;83.94;96728.06;4963349;28;20093;-67
2021/11/10 05:52:36;;;;;;;18.92;11.93;;;2.30;78.80;;;0.21;84.30;96732.59;4996000;28;20096;-67
2021/11/10 05:55:04;;;;;;;14.98;11.20;;;2.20;79.30;;;0.21;84.75;96732.59;4972146;28;20105;-67
2021/11/10 05:57:31;;;;;;;18.65;11.63;;;2.20;79.70;;;0.19;84.84;96733.66;4975998;28;20038;-67
2021/11/10 05:59:56;;;;;;;19.98;11.70;;;2.20;79.60;;;0.21;84.88;96742.13;4959986;28;20034;-67
2021/11/10 06:02:22;;;;;;;16.75;12.00;;;2.20;79.70;;;0.20;85.47;96737.88;4976080;28;20418;-67
2021/11/10 06:04:48;;;;;;;15.45;11.57;;;2.20;79.80;;;0.20;84.95;96730.94;4976261;28;20573;-67
2021/11/10 06:07:14;;;;;;;18.80;12.02;;;2.30;79.60;;;0.22;84.87;96725.66;4960162;28;20058;-67
2021/11/10 06:09:39;;;;;;;21.67;12.43;;;2.30;79.50;;;0.23;85.36;96728.19;4940004;28;20392;-67
2021/11/10 06:12:06;;;;;;;15.98;11.60;;;2.30;79.60;;;0.24;84.90;96727.25;4970158;28;20038;-67
2021/11/10 06:14:32;;;;;;;18.38;11.68;;;2.30;79.70;;;0.25;85.20;96730.66;4991942;28;20097;-67
2021/11/10 06:16:57;;;;;;;19.00;12.13;;;2.30;79.30;;;0.25;85.43;96730.66;4992161;28;20034;-67
2021/11/10 06:19:25;;;;;;;20.50;13.40;;;2.40;79.30;;;0.26;85.44;96740.88;4974963;28;20062;-67
2021/11/10 06:21:52;;;;;;;20.92;13.48;;;2.40;79.30;;;0.26;85.10;96740.06;5007982;28;20038;-67
2021/11/10 06:24:20;;;;;;;22.20;14.07;;;2.40;79.20;;;0.26;84.98;96740.06;4988468;28;20503;-67
2021/11/10 06:26:47;;;;;;;20.63;13.65;;;2.40;79.00;;;0.25;85.01;96748.75;4988655;28;20045;-67
2021/11/10 06:29:13;;;;;;;19.38;13.10;;;2.40;79.20;;;0.29;86.22;96755.38;4971971;28;20035;-68
2021/11/10 06:31:38;;;;;;;20.13;13.25;;;2.40;81.10;;;0.35;86.94;96759.25;4972410;28;20049;-68
2021/11/10 06:34:04;;;;;;;17.95;12.18;;;2.60;81.70;;;0.40;86.80;96755.41;4972314;28;20128;-67
2021/11/10 06:36:30;;;;;;;21.75;12.38;;;2.60;80.90;;;0.46;86.31;96767.09;4956316;28;20102;-67
2021/11/10 06:38:56;;;;;;;21.52;11.95;;;2.60;80.40;;;0.49;86.79;96777.22;4971648;28;20105;-67
2021/11/10 06:41:22;;;;;;;35.40;19.10;;;2.70;80.00;;;0.53;86.07;96763.94;4971475;28;20031;-68
2021/11/10 06:43:49;;;;;;;34.75;20.60;;;2.70;79.10;;;0.57;85.86;96759.38;5008782;28;20096;-68
2021/11/10 06:46:16;;;;;;;27.70;16.65;;;2.80;79.50;;;0.61;85.40;96758.22;4999694;28;20590;-67
2021/11/10 06:48:42;;;;;;;23.77;15.50;;;2.90;78.70;;;0.66;85.50;96763.03;4972171;28;20453;-67
2021/11/10 06:51:08;;;;;;;22.02;15.18;;;2.90;78.70;;;0.70;85.61;96764.50;4955920;28;20118;-67
2021/11/10 06:53:34;;;;;;;24.77;14.55;;;3.00;78.20;;;0.72;85.64;96765.22;4971746;28;20035;-67
2021/11/10 06:56:00;;;;;;;19.33;12.43;;;3.00;77.80;;;0.76;85.72;96764.03;4956224;28;20355;-67
2021/11/10 06:58:26;;;;;;;18.88;11.85;;;3.00;77.70;;;0.77;85.01;96760.50;4942347;28;20058;-67
2021/11/10 07:00:51;;;;;;;17.05;11.15;;;3.00;77.80;;;0.76;84.87;96764.03;4974543;28;20044;-67
2021/11/10 07:03:17;;;;;;;18.60;10.85;;;2.90;77.80;;;0.77;85.45;96770.88;4958945;28;20150;-67
2021/11/10 07:05:43;;;;;;;16.73;10.93;;;2.90;77.70;;;0.76;85.26;96767.47;4990944;28;20498;-68
2021/11/10 07:08:08;;;;;;;16.08;10.65;;;2.90;77.80;;;0.77;85.27;96770.88;4943015;28;20026;-67
2021/11/10 07:10:34;;;;;;;14.70;11.15;;;2.90;78.00;;;0.74;85.10;96771.09;4974824;28;20037;-67
2021/11/10 07:13:00;;;;;;;17.67;12.15;;;2.90;78.40;;;0.73;85.09;96774.63;4975064;28;20046;-68
2021/11/10 07:15:26;;;;;;;17.77;11.50;;;2.90;78.30;;;0.73;85.03;96770.28;4974134;28;20064;-68
2021/11/10 07:17:52;;;;;;;21.15;14.25;;;2.90;78.00;;;0.75;85.63;96772.75;4959048;28;20033;-69
2021/11/10 07:20:19;;;;;;;21.58;12.35;;;3.00;78.00;;;0.82;85.28;96776.53;4958494;28;20085;-68
2021/11/10 07:22:45;;;;;;;17.55;12.45;;;3.10;77.90;;;0.90;85.69;96777.63;4959123;28;20061;-68
2021/11/10 07:25:11;;;;;;;26.63;18.52;;;3.20;77.90;;;0.98;85.56;96769.28;4958678;28;20031;-68
2021/11/10 07:27:36;;;;;;;28.40;19.95;;;3.40;77.80;;;1.06;86.07;96766.94;5006850;28;20043;-68
2021/11/10 07:30:08;;;;;;;28.58;18.77;;;3.50;77.30;;;1.13;85.62;96768.16;4990652;28;20026;-68
2021/11/10 07:32:35;;;;;;;19.77;12.07;;;3.60;76.50;;;1.20;85.60;96768.53;5006645;28;20045;-69
2021/11/10 07:35:03;;;;;;;15.95;10.77;;;3.70;76.50;;;1.26;85.23;96767.25;4990869;28;20528;-68
2021/11/10 07:37:29;;;;;;;18.50;11.02;;;3.70;76.00;;;1.31;84.95;96771.13;4990111;28;20629;-68
2021/11/10 07:39:54;;;;;;;18.15;10.82;;;3.90;75.80;;;1.41;84.71;96771.28;5003445;28;20038;-67
2021/11/10 07:42:20;;;;;;;15.63;10.90;;;3.90;75.30;;;1.47;84.44;96763.84;4948737;28;20513;-68
2021/11/10 07:44:53;;;;;;;18.08;11.43;;;4.00;75.20;;;1.54;84.54;96762.44;4994021;28;20041;-70
2021/11/10 07:47:21;;;;;;;16.77;11.05;;;4.20;74.80;;;1.63;84.69;96768.69;4978536;28;20116;-68
2021/11/10 07:49:47;;;;;;;17.60;10.38;;;4.30;74.50;;;1.71;84.40;96763.75;4993243;28;20096;-67
2021/11/10 07:52:13;;;;;;;18.88;11.18;;;4.30;74.40;;;1.80;84.76;96757.84;4960333;28;20026;-68
2021/11/10 07:54:39;;;;;;;24.85;17.98;;;4.50;74.40;;;1.90;84.12;96759.72;4966180;28;20129;-68
2021/11/10 07:57:05;;;;;;;42.65;32.17;;;4.60;74.30;;;1.99;84.50;96762.44;4957945;28;20043;-68
2021/11/10 07:59:31;;;;;;;24.58;17.52;;;4.70;73.80;;;2.10;84.06;96759.84;4956410;28;20041;-67
2021/11/10 08:01:57;;;;;;;15.93;11.27;;;4.90;73.60;;;2.22;83.84;96757.19;4957674;28;20030;-69
2021/11/10 08:04:23;;;;;;;16.30;10.75;;;5.00;73.20;;;2.33;84.14;96758.00;4941725;28;20490;-69
2021/11/10 08:06:48;;;;;;;17.52;11.15;;;5.10;73.00;;;2.43;83.98;96756.31;4973978;28;20114;-67
2021/11/10 08:09:14;;;;;;;14.90;10.77;;;5.20;72.40;;;2.57;83.69;96767.38;4989247;28;20044;-69
2021/11/10 08:11:40;;;;;;;16.80;11.38;;;5.40;72.00;;;2.70;83.27;96761.06;4953543;28;20046;-67
2021/11/10 08:14:06;;;;;;;13.68;10.23;;;5.60;71.70;;;2.83;83.32;96763.50;4972356;28;20038;-69
2021/11/10 08:16:32;;;;;;;14.65;10.75;;;5.80;71.20;;;2.96;83.48;96764.16;5022266;28;20034;-68
2021/11/10 08:18:57;;;;;;;16.50;10.80;;;6.10;70.50;;;3.11;82.67;96758.66;4989651;28;20093;-67
2021/11/10 08:21:23;;;;;;;16.55;12.00;;;6.20;69.60;;;3.26;82.62;96749.59;4972759;28;20122;-68
2021/11/10 08:23:49;;;;;;;17.00;11.13;;;6.60;68.90;;;3.43;82.44;96751.59;5006326;28;20030;-68
2021/11/10 08:26:15;;;;;;;16.45;11.73;;;6.80;67.70;;;3.56;82.01;96757.41;4989546;28;20030;-69
2021/11/10 08:28:41;;;;;;;13.70;11.60;;;7.00;66.90;;;3.75;81.59;96758.47;4988845;28;20053;-68
2021/11/10 08:31:06;;;;;;;13.40;11.63;;;7.20;66.40;;;3.92;81.38;96763.88;4957344;28;20067;-69
2021/11/10 08:33:32;;;;;;;15.00;11.38;;;7.40;65.90;;;4.08;81.12;96752.97;4972917;28;20039;-68
2021/11/10 08:35:59;;;;;;;14.63;12.40;;;7.60;65.10;;;4.21;80.10;96753.53;4957298;28;20041;-68
2021/11/10 08:38:29;;;;;;;17.10;11.63;;;7.60;64.80;;;4.38;79.68;96749.47;4973011;28;20136;-68
2021/11/10 08:40:56;;;;;;;14.88;11.68;;;7.70;64.70;;;4.52;79.14;96745.63;4972665;28;20089;-68
2021/11/10 08:43:22;;;;;;;16.02;12.43;;;7.90;64.60;;;4.60;79.20;96749.22;5007508;28;20056;-68
2021/11/10 08:45:49;;;;;;;15.65;12.68;;;7.90;64.10;;;4.72;78.89;96751.69;4992295;28;20022;-68
2021/11/10 08:48:15;;;;;;;29.15;12.90;;;7.90;64.10;;;4.78;78.59;96746.78;4976284;28;20145;-69
2021/11/10 08:50:42;;;;;;;19.45;12.20;;;7.90;64.60;;;4.85;78.36;96747.88;4975908;28;20502;-68
2021/11/10 08:53:10;;;;;;;17.30;12.15;;;7.90;64.80;;;4.93;77.53;96747.16;4976506;28;20033;-68
2021/11/10 08:55:36;;;;;;;17.38;12.23;;;8.00;64.60;;;5.00;77.67;96755.28;4975921;28;20453;-67
2021/11/10 08:58:01;;;;;;;18.42;11.75;;;7.80;65.20;;;5.03;77.26;96749.78;4938485;28;20041;-68
2021/11/10 09:00:30;;;;;;;18.77;12.02;;;7.90;65.30;;;5.10;77.34;96756.09;4966154;28;20765;-68
2021/11/10 09:02:56;;;;;;;17.20;11.93;;;8.20;64.70;;;5.19;77.72;96760.47;4937362;28;20125;-68
2021/11/10 09:05:22;;;;;;;14.60;11.15;;;8.70;63.70;;;5.31;77.18;96761.13;4952601;28;20061;-68
2021/11/10 09:07:48;;;;;;;17.55;11.93;;;9.00;62.30;;;5.39;77.35;96762.06;4969500;28;20466;-69
2021/11/10 09:10:14;;;;;;;18.65;12.30;;;8.80;62.20;;;5.46;76.52;96760.56;4953204;28;20058;-68
2021/11/10 09:12:41;;;;;;;14.25;11.75;;;8.90;62.30;;;5.54;76.31;96754.63;4953718;28;20171;-68
2021/11/10 09:15:09;;;;;;;25.98;12.30;;;8.90;62.50;;;5.62;76.50;96767.78;4969635;28;20034;-68
2021/11/10 09:17:35;;;;;;;16.35;12.15;;;9.10;62.60;;;5.72;76.80;96757.34;4978170;28;20141;-68
2021/11/10 09:20:06;;;;;;;20.20;15.40;;;9.10;62.00;;;5.80;76.08;96752.22;4985160;28;20117;-68
2021/11/10 09:22:32;;;;;;;22.30;17.05;;;9.10;62.70;;;5.92;76.60;96755.50;5001080;28;20037;-68
2021/11/10 09:24:58;;;;;;;16.45;13.43;;;9.20;62.40;;;6.02;75.60;96754.50;4969790;28;20039;-68
2021/11/10 09:27:24;;;;;;;20.58;13.15;;;9.40;61.90;;;6.14;76.08;96761.19;4968661;28;20053;-68
2021/11/10 09:29:50;;;;;;;15.60;11.77;;;9.50;61.90;;;6.30;75.95;96760.53;4943084;28;20053;-68
2021/11/10 09:32:16;;;;;;;15.68;12.30;;;9.60;61.10;;;6.42;74.89;96759.38;4953003;28;20118;-68
2021/11/10 09:34:42;;;;;;;16.42;12.68;;;9.80;60.70;;;6.54;75.23;96759.97;4948835;28;20193;-68
2021/11/10 09:37:08;;;;;;;17.70;11.60;;;9.90;60.50;;;6.67;74.92;96760.44;4988637;28;20034;-68
2021/11/10 09:39:33;;;;;;;14.15;11.38;;;10.10;59.80;;;6.78;74.45;96756.78;4955697;28;20057;-69
2021/11/10 09:41:59;;;;;;;16.17;11.25;;;10.20;59.70;;;6.87;74.26;96768.97;4959575;28;20537;-68
2021/11/10 09:44:25;;;;;;;15.65;11.68;;;10.20;59.10;;;6.95;73.45;96768.22;4975429;28;20092;-68
2021/11/10 09:46:52;;;;;;;14.10;12.18;;;10.10;58.90;;;6.95;73.52;96774.28;4975795;28;20436;-69
2021/11/10 09:49:19;;;;;;;14.85;11.57;;;10.10;59.70;;;7.02;73.35;96777.13;4981352;28;20410;-68
2021/11/10 09:51:45;;;;;;;16.70;11.90;;;10.10;59.50;;;7.07;72.97;96774.88;4952742;28;20118;-68
2021/11/10 09:54:13;;;;;;;16.17;12.02;;;10.30;59.40;;;7.12;72.99;96780.47;4953177;28;20072;-68
2021/11/10 09:56:39;;;;;;;15.65;11.52;;;10.30;59.10;;;7.21;72.49;96784.78;4969094;28;20121;-68
2021/11/10 09:59:05;;;;;;;15.48;11.93;;;10.70;58.00;;;7.36;72.67;96777.22;4952524;28;20126;-68
2021/11/10 10:01:38;;;;;;;13.95;11.75;;;11.00;57.00;;;7.50;71.41;96778.50;4970069;28;20030;-68
2021/11/10 10:04:04;;;;;;;16.70;12.43;;;11.00;56.50;;;7.57;71.65;96769.03;4971338;28;20085;-68
2021/11/10 10:06:30;;;;;;;15.77;11.50;;;10.90;56.70;;;7.64;71.32;96764.81;4991625;28;20473;-69
2021/11/10 10:08:57;;;;;;;15.68;11.75;;;10.80;56.90;;;7.65;70.84;96762.03;4973675;28;20034;-68
2021/11/10 10:11:23;;;;;;;14.10;11.45;;;10.80;57.50;;;7.69;71.13;96757.31;4974458;28;20044;-69
2021/11/10 10:13:49;;;;;;;14.98;11.38;;;10.90;57.40;;;7.72;71.45;96754.41;4991623;28;20030;-69
2021/11/10 10:16:23;;;;;;;16.23;12.27;;;10.80;57.90;;;7.80;70.00;96741.34;4995017;28;20064;-67